Terminal Aerodrome Forecast
Issued by NWS St Louis, MO

Home | Current Version | Previous Version | Text Only | Print | Product List | Glossary On
Versions: 1 2 3 4 5 6 7 8 9 10 11 12 13 14 15 16 17 18 19 20 21 22 23 24
159
FTUS43 KLSX 181734
TAFSTL
TAF
KSTL 181734Z 1818/1924 32019G33KT 6SM -SHRA BR SCT009 OVC012
      TEMPO 1818/1821 4SM -SHRA BR BKN009
     FM182200 32020G31KT P6SM -SHRA OVC022
     FM190000 32019G25KT P6SM BKN050
     FM190300 31012KT P6SM SCT100
     FM191100 31010KT P6SM SKC=

USA.gov is the U.S. government's official web portal to all federal, state and local government web resources and services.